Time;durP1;ratioP1;P1;durP2;ratioP2;P2;SDS_P1;SDS_P2;PMS_P1;PMS_P2;Temp;Humidity;BMP_temperature;BMP_pressure;BME280_temperature;BME280_humidity;BME280_pressure;Samples;Min_cycle;Max_cycle;Signal;HPM_P1;HPM_P2
2023/01/25 00:01:32;;;;;;;44.35;23.70;;;1.80;99.90;;;;;;5072488;28;20029;-71
2023/01/25 00:03:58;;;;;;;45.13;24.83;;;1.90;99.90;;;;;;5065061;28;20462;-72
2023/01/25 00:06:23;;;;;;;43.30;24.10;;;1.90;99.90;;;;;;5057126;28;20033;-71
2023/01/25 00:08:50;;;;;;;45.83;23.77;;;1.90;99.90;;;;;;5070346;28;20027;-71
2023/01/25 00:11:16;;;;;;;44.80;24.40;;;1.90;99.90;;;;;;5070375;28;20078;-71
2023/01/25 00:13:42;;;;;;;51.53;25.90;;;1.80;99.90;;;;;;5070478;28;20043;-71
2023/01/25 00:16:08;;;;;;;44.20;24.73;;;1.80;99.90;;;;;;5057457;28;20083;-71
2023/01/25 00:18:34;;;;;;;46.63;24.35;;;1.80;99.90;;;;;;5060459;28;20100;-70
2023/01/25 00:21:10;;;;;;;43.65;25.10;;;1.80;99.90;;;;;;5072787;28;20442;-71
2023/01/25 00:23:35;;;;;;;47.35;24.80;;;1.70;99.90;;;;;;5054916;28;20021;-70
2023/01/25 00:26:01;;;;;;;45.50;24.52;;;1.90;99.90;;;;;;5089365;28;20044;-71
2023/01/25 00:28:26;;;;;;;44.72;24.20;;;1.90;99.90;;;;;;5095099;28;20035;-70
2023/01/25 00:30:52;;;;;;;44.28;23.85;;;1.90;99.90;;;;;;5091993;28;20482;-70
2023/01/25 00:33:17;;;;;;;49.80;25.15;;;1.90;99.90;;;;;;5100744;28;20541;-70
2023/01/25 00:35:44;;;;;;;43.45;22.80;;;2.00;99.90;;;;;;5103622;28;20031;-71
2023/01/25 00:38:33;;;;;;;45.50;25.02;;;1.90;99.90;;;;;;5095163;28;20058;-71
2023/01/25 00:40:59;;;;;;;46.47;24.42;;;1.80;99.90;;;;;;5084329;28;20134;-71
2023/01/25 00:43:25;;;;;;;45.13;24.83;;;1.80;99.90;;;;;;5103372;28;20036;-71
2023/01/25 00:45:51;;;;;;;42.67;23.05;;;1.90;99.90;;;;;;5102234;28;20041;-71
2023/01/25 00:48:16;;;;;;;43.05;23.88;;;1.90;99.90;;;;;;5093052;28;20032;-71
2023/01/25 00:50:42;;;;;;;43.03;24.80;;;1.80;99.90;;;;;;5090402;28;20024;-71
2023/01/25 00:53:08;;;;;;;43.65;24.13;;;1.90;99.90;;;;;;5103976;28;20517;-71
2023/01/25 00:55:33;;;;;;;45.60;24.55;;;1.90;99.90;;;;;;5100904;28;20038;-71
2023/01/25 00:57:59;;;;;;;42.35;23.42;;;1.90;99.90;;;;;;5087362;28;20380;-71
2023/01/25 01:00:24;;;;;;;46.08;24.58;;;1.80;99.90;;;;;;5093260;28;20051;-71
2023/01/25 01:02:50;;;;;;;42.45;23.60;;;1.80;99.90;;;;;;5081748;28;20073;-71
2023/01/25 01:05:15;;;;;;;43.58;23.10;;;1.70;99.90;;;;;;5075056;28;20028;-71
2023/01/25 01:07:42;;;;;;;41.67;23.33;;;1.70;99.90;;;;;;5092099;28;20456;-71
2023/01/25 01:10:08;;;;;;;44.10;23.58;;;1.80;99.90;;;;;;5097023;28;20032;-71
2023/01/25 01:12:34;;;;;;;39.47;22.50;;;1.80;99.90;;;;;;5090929;28;20039;-70
2023/01/25 01:14:59;;;;;;;39.92;22.85;;;1.80;99.90;;;;;;5097986;28;20090;-71
2023/01/25 01:17:25;;;;;;;42.20;23.33;;;1.70;99.90;;;;;;5097378;28;20115;-72
2023/01/25 01:19:51;;;;;;;42.45;23.05;;;1.70;99.90;;;;;;5091262;28;20461;-71
2023/01/25 01:22:16;;;;;;;43.13;23.67;;;1.70;99.90;;;;;;5098677;28;20035;-71
2023/01/25 01:24:42;;;;;;;44.83;21.65;;;1.70;99.90;;;;;;5088315;28;20057;-70
2023/01/25 01:27:07;;;;;;;40.65;22.50;;;1.70;99.90;;;;;;5073760;28;20047;-71
2023/01/25 01:29:33;;;;;;;41.20;23.02;;;1.70;99.90;;;;;;5064762;28;20390;-71
2023/01/25 01:31:58;;;;;;;41.45;21.60;;;1.70;99.90;;;;;;5072687;28;20405;-71
2023/01/25 01:34:25;;;;;;;39.40;20.92;;;1.70;99.90;;;;;;5071802;28;20121;-71
2023/01/25 01:36:50;;;;;;;42.63;23.05;;;1.70;99.90;;;;;;5070866;28;20028;-70
2023/01/25 01:39:16;;;;;;;41.42;23.42;;;1.70;99.90;;;;;;5073768;28;20032;-71
2023/01/25 01:41:42;;;;;;;43.97;23.45;;;1.70;99.90;;;;;;5070598;28;20024;-71
2023/01/25 01:44:19;;;;;;;41.42;22.52;;;1.80;99.90;;;;;;5070462;28;20032;-71
2023/01/25 01:47:02;;;;;;;38.60;21.63;;;1.80;99.90;;;;;;5065502;28;20119;-70
2023/01/25 01:49:31;;;;;;;37.70;20.92;;;1.80;99.90;;;;;;5068606;28;20020;-71
2023/01/25 01:52:00;;;;;;;42.40;22.25;;;1.80;99.90;;;;;;5073059;28;20024;-71
2023/01/25 01:54:34;;;;;;;39.13;22.07;;;1.90;99.90;;;;;;5071434;28;20043;-71
2023/01/25 01:57:11;;;;;;;38.65;21.05;;;1.90;99.90;;;;;;5073026;28;20032;-71
2023/01/25 01:59:51;;;;;;;40.28;22.02;;;1.90;99.90;;;;;;5068478;28;20032;-71
2023/01/25 02:02:16;;;;;;;37.00;20.95;;;1.90;99.90;;;;;;5073522;28;20058;-71
2023/01/25 02:04:46;;;;;;;40.42;23.13;;;2.00;99.90;;;;;;5069851;28;20465;-71
2023/01/25 02:07:23;;;;;;;41.50;22.93;;;2.00;99.90;;;;;;5072615;28;20117;-72
2023/01/25 02:09:50;;;;;;;42.72;23.35;;;1.90;99.90;;;;;;5068874;28;20115;-71
2023/01/25 02:12:19;;;;;;;40.55;22.95;;;2.00;99.90;;;;;;5072422;28;20079;-72
2023/01/25 02:14:48;;;;;;;40.08;21.85;;;2.00;99.90;;;;;;5072929;28;20025;-71
2023/01/25 02:17:14;;;;;;;40.67;23.30;;;1.90;99.90;;;;;;5073943;28;20043;-72
2023/01/25 02:19:58;;;;;;;40.75;22.45;;;2.00;99.90;;;;;;5071574;28;20021;-71
2023/01/25 02:22:45;;;;;;;39.80;21.25;;;1.90;99.90;;;;;;5071011;28;20037;-71
2023/01/25 02:25:13;;;;;;;42.20;21.40;;;1.80;99.90;;;;;;5077172;28;20048;-71
2023/01/25 02:27:53;;;;;;;41.60;22.17;;;2.00;99.90;;;;;;5091696;28;20101;-71
2023/01/25 02:30:19;;;;;;;40.40;21.88;;;2.00;99.90;;;;;;5089327;28;20028;-71
2023/01/25 02:32:44;;;;;;;42.05;21.83;;;1.90;99.90;;;;;;5088331;28;20039;-71
2023/01/25 02:35:34;;;;;;;40.92;23.10;;;2.00;99.90;;;;;;5072483;28;20031;-72
2023/01/25 02:38:00;;;;;;;;;;;2.00;99.90;;;;;;5092021;28;20032;-72
2023/01/25 02:40:26;;;;;;;45.13;22.05;;;1.90;99.90;;;;;;5100352;28;20356;-72
2023/01/25 02:42:51;;;;;;;41.38;21.83;;;1.90;99.90;;;;;;5089341;28;20036;-72
2023/01/25 02:45:22;;;;;;;44.35;22.92;;;1.90;99.90;;;;;;5090880;28;20043;-73
2023/01/25 02:47:48;;;;;;;43.55;22.98;;;1.90;99.90;;;;;;5090872;28;20038;-73
2023/01/25 02:50:14;;;;;;;43.13;21.92;;;1.90;99.90;;;;;;5102341;28;20020;-72
2023/01/25 02:52:40;;;;;;;45.05;23.92;;;1.90;99.90;;;;;;5096064;28;20028;-71
2023/01/25 02:55:06;;;;;;;40.25;21.98;;;1.90;99.90;;;;;;5092180;28;20028;-73
2023/01/25 02:57:31;;;;;;;39.45;21.45;;;1.90;99.90;;;;;;5099658;28;20032;-71
2023/01/25 02:59:57;;;;;;;42.47;21.90;;;2.00;99.90;;;;;;5092953;28;20081;-73
2023/01/25 03:02:22;;;;;;;40.75;20.90;;;1.90;99.90;;;;;;5091979;28;20052;-72
2023/01/25 03:04:49;;;;;;;44.42;22.27;;;1.90;99.90;;;;;;5094388;28;20040;-71
2023/01/25 03:07:15;;;;;;;42.78;21.60;;;1.80;99.90;;;;;;5097567;28;20368;-71
2023/01/25 03:09:41;;;;;;;36.17;20.58;;;1.80;99.90;;;;;;5097644;28;20035;-70
2023/01/25 03:12:06;;;;;;;46.53;22.58;;;1.80;99.90;;;;;;5101690;28;20103;-71
2023/01/25 03:14:32;;;;;;;40.83;21.20;;;1.80;99.90;;;;;;5086003;28;20036;-70
2023/01/25 03:16:58;;;;;;;39.50;21.25;;;1.80;99.90;;;;;;5094712;28;20074;-72
2023/01/25 03:19:24;;;;;;;41.60;21.77;;;1.80;99.90;;;;;;5094131;28;20028;-70
2023/01/25 03:21:50;;;;;;;38.30;20.38;;;1.70;99.90;;;;;;5088228;28;20032;-71
2023/01/25 03:24:15;;;;;;;41.65;22.20;;;1.70;99.90;;;;;;5085160;28;20028;-71
2023/01/25 03:29:26;;;;;;;44.03;21.73;;;1.70;99.90;;;;;;5093343;28;20031;-71
2023/01/25 03:31:51;;;;;;;38.40;20.98;;;1.70;99.90;;;;;;5092386;28;20016;-71
2023/01/25 03:34:17;;;;;;;38.20;21.50;;;1.70;99.90;;;;;;5100814;28;20107;-71
2023/01/25 03:36:43;;;;;;;39.50;20.23;;;1.80;99.90;;;;;;5096728;28;20369;-70
2023/01/25 03:39:08;;;;;;;41.53;22.27;;;1.90;99.90;;;;;;5095800;28;20464;-70
2023/01/25 03:41:34;;;;;;;38.75;21.00;;;1.90;99.90;;;;;;5095551;28;20076;-70
2023/01/25 03:44:00;;;;;;;39.35;20.63;;;1.90;99.90;;;;;;5106376;28;20110;-70
2023/01/25 03:46:25;;;;;;;38.85;19.52;;;2.00;99.90;;;;;;5093482;28;20024;-71
2023/01/25 03:48:51;;;;;;;40.70;20.25;;;1.90;99.90;;;;;;5091308;28;20547;-71
2023/01/25 03:51:16;;;;;;;44.55;21.75;;;2.00;99.90;;;;;;5093525;28;20024;-70
2023/01/25 03:53:42;;;;;;;39.83;20.17;;;1.90;99.90;;;;;;5092348;28;20028;-71
2023/01/25 03:56:10;;;;;;;45.88;22.30;;;1.90;99.90;;;;;;5093611;28;20024;-70
2023/01/25 03:58:38;;;;;;;40.03;20.67;;;1.90;99.90;;;;;;5083824;28;20035;-71
2023/01/25 04:01:05;;;;;;;38.72;20.92;;;1.90;99.90;;;;;;5093465;28;20031;-71
2023/01/25 04:03:31;;;;;;;41.03;20.67;;;1.90;99.90;;;;;;5092446;28;20060;-71
2023/01/25 04:05:57;;;;;;;38.60;21.13;;;1.90;99.90;;;;;;5096214;28;20067;-71
2023/01/25 04:08:24;;;;;;;37.35;19.88;;;1.90;99.90;;;;;;5093474;28;20031;-71
2023/01/25 04:10:55;;;;;;;36.22;17.80;;;1.90;99.90;;;;;;5104686;28;20110;-71
2023/01/25 04:13:22;;;;;;;32.75;18.00;;;2.00;99.90;;;;;;5104820;28;20036;-71
2023/01/25 04:15:47;;;;;;;36.63;18.10;;;2.00;99.90;;;;;;5093503;28;20050;-70
2023/01/25 04:18:13;;;;;;;28.55;16.92;;;1.90;99.90;;;;;;5094327;28;20103;-71
2023/01/25 04:20:39;;;;;;;36.33;18.13;;;2.00;99.90;;;;;;5088423;28;20039;-70
2023/01/25 04:23:08;;;;;;;31.20;15.68;;;2.00;99.90;;;;;;5095822;28;20031;-71
2023/01/25 04:25:34;;;;;;;26.23;15.23;;;2.00;99.90;;;;;;5081939;28;20107;-70
2023/01/25 04:27:59;;;;;;;28.92;15.27;;;2.00;99.90;;;;;;5076385;28;20032;-71
2023/01/25 04:30:25;;;;;;;25.90;15.18;;;2.00;99.90;;;;;;5072966;28;20458;-70
2023/01/25 04:32:51;;;;;;;25.98;14.65;;;2.10;99.90;;;;;;5071892;28;20056;-70
2023/01/25 04:35:19;;;;;;;25.48;14.05;;;2.00;99.90;;;;;;5075009;28;20085;-70
2023/01/25 04:37:52;;;;;;;24.42;14.52;;;2.00;99.90;;;;;;5076640;28;20027;-70
2023/01/25 04:40:18;;;;;;;27.25;14.00;;;2.00;99.90;;;;;;5071094;28;20039;-70
2023/01/25 04:42:43;;;;;;;25.85;14.32;;;1.90;99.90;;;;;;5055327;28;20024;-71
2023/01/25 04:45:09;;;;;;;25.20;13.00;;;1.90;99.90;;;;;;5088188;28;20063;-71
2023/01/25 04:47:35;;;;;;;25.33;13.73;;;1.80;99.90;;;;;;5076931;28;20036;-70
2023/01/25 04:50:00;;;;;;;23.83;13.77;;;1.90;99.90;;;;;;5071811;28;20025;-70
2023/01/25 04:52:26;;;;;;;23.88;14.05;;;1.90;99.90;;;;;;5073127;28;20123;-70
2023/01/25 04:54:51;;;;;;;22.85;12.68;;;1.80;99.90;;;;;;5066156;28;20032;-70
2023/01/25 04:57:17;;;;;;;24.40;14.02;;;1.80;99.90;;;;;;5070592;28;20140;-71
2023/01/25 04:59:43;;;;;;;27.80;14.07;;;1.90;99.90;;;;;;5069450;28;20419;-70
2023/01/25 05:02:08;;;;;;;24.90;13.68;;;2.00;99.90;;;;;;5072220;28;20543;-71
2023/01/25 05:04:34;;;;;;;28.00;14.00;;;1.90;99.90;;;;;;5071828;28;20042;-71
2023/01/25 05:06:59;;;;;;;29.25;13.48;;;1.90;99.90;;;;;;5073837;28;20037;-71
2023/01/25 05:09:25;;;;;;;24.85;13.95;;;2.00;99.90;;;;;;5074564;28;20031;-71
2023/01/25 05:11:50;;;;;;;24.73;13.80;;;2.00;99.90;;;;;;5068293;28;20292;-71
2023/01/25 05:14:16;;;;;;;22.85;13.57;;;1.90;99.90;;;;;;5070031;28;20051;-71
2023/01/25 05:16:42;;;;;;;24.73;14.48;;;2.00;99.90;;;;;;5070992;28;20056;-70
2023/01/25 05:19:08;;;;;;;23.02;13.90;;;2.00;99.90;;;;;;5072401;28;20428;-70
2023/01/25 05:24:19;;;;;;;25.33;13.25;;;2.00;99.90;;;;;;5071725;28;20039;-71
2023/01/25 05:26:59;;;;;;;24.10;12.95;;;2.10;99.90;;;;;;5089834;28;20032;-71
2023/01/25 05:29:27;;;;;;;21.90;12.23;;;2.10;99.90;;;;;;5089484;28;20450;-71
2023/01/25 05:31:53;;;;;;;24.75;13.95;;;2.00;99.90;;;;;;5087119;28;20116;-71
2023/01/25 05:34:18;;;;;;;24.80;13.45;;;1.90;99.90;;;;;;5089384;28;20115;-71
2023/01/25 05:36:44;;;;;;;28.40;14.27;;;1.90;99.90;;;;;;5089975;28;20509;-70
2023/01/25 05:39:09;;;;;;;26.00;14.40;;;1.90;99.90;;;;;;5091559;28;20036;-70
2023/01/25 05:41:35;;;;;;;25.88;14.43;;;2.00;99.90;;;;;;5088932;28;20028;-71
2023/01/25 05:44:01;;;;;;;22.58;12.73;;;2.00;99.90;;;;;;5090307;28;20028;-70
2023/01/25 05:46:27;;;;;;;22.67;13.38;;;2.00;99.90;;;;;;5090646;28;20727;-71
2023/01/25 05:48:53;;;;;;;23.77;13.98;;;2.10;99.90;;;;;;5089011;28;20077;-71
2023/01/25 05:51:18;;;;;;;22.75;13.55;;;2.10;99.90;;;;;;5089757;28;20059;-71
2023/01/25 05:53:44;;;;;;;22.15;13.18;;;2.00;99.90;;;;;;5088495;28;20020;-71
2023/01/25 05:56:10;;;;;;;25.55;14.05;;;2.00;99.90;;;;;;5090904;28;20036;-71
2023/01/25 05:58:36;;;;;;;22.40;12.52;;;2.00;99.90;;;;;;5093665;28;20028;-71
2023/01/25 06:01:04;;;;;;;28.10;13.88;;;2.00;99.90;;;;;;5094381;28;20096;-70
2023/01/25 06:03:29;;;;;;;28.63;13.70;;;2.00;99.90;;;;;;5090959;28;20047;-71
2023/01/25 06:06:02;;;;;;;24.52;13.30;;;2.00;99.90;;;;;;5090744;28;20453;-71
2023/01/25 06:08:29;;;;;;;28.02;14.75;;;2.00;99.90;;;;;;5093613;28;20027;-71
2023/01/25 06:10:55;;;;;;;23.63;12.90;;;2.00;99.90;;;;;;5092518;28;20038;-71
2023/01/25 06:13:21;;;;;;;25.88;13.70;;;1.90;99.90;;;;;;5089164;28;20027;-71
2023/01/25 06:15:56;;;;;;;26.25;14.35;;;1.80;99.90;;;;;;5096505;28;20435;-72
2023/01/25 06:18:25;;;;;;;27.88;14.35;;;1.90;99.90;;;;;;5091412;28;20084;-70
2023/01/25 06:20:51;;;;;;;24.35;13.43;;;1.90;99.90;;;;;;5093520;28;20365;-70
2023/01/25 06:23:17;;;;;;;22.30;13.20;;;1.90;99.90;;;;;;5085447;28;20092;-70
2023/01/25 06:25:42;;;;;;;28.05;14.05;;;1.80;99.90;;;;;;5096419;28;20075;-70
2023/01/25 06:28:08;;;;;;;24.98;13.60;;;1.70;99.90;;;;;;5086804;28;20038;-69
2023/01/25 06:30:34;;;;;;;26.75;13.88;;;1.70;99.90;;;;;;5082975;28;20024;-70
2023/01/25 06:33:01;;;;;;;25.45;13.77;;;1.70;99.90;;;;;;5095818;28;20027;-70
2023/01/25 06:35:27;;;;;;;33.05;15.90;;;1.80;99.90;;;;;;5087288;28;20032;-68
2023/01/25 06:37:56;;;;;;;25.60;15.07;;;1.80;99.90;;;;;;5090307;28;20047;-72
2023/01/25 06:40:22;;;;;;;26.67;13.98;;;1.80;99.90;;;;;;5089662;28;20028;-71
2023/01/25 06:42:47;;;;;;;26.02;13.27;;;1.70;99.90;;;;;;5073628;28;20024;-65
2023/01/25 06:45:13;;;;;;;33.28;15.77;;;1.70;99.90;;;;;;5091283;28;20028;-69
2023/01/25 06:47:39;;;;;;;26.10;13.93;;;1.70;99.90;;;;;;5091126;28;20028;-70
2023/01/25 06:50:05;;;;;;;24.83;14.32;;;1.80;99.90;;;;;;5090630;28;20028;-68
2023/01/25 06:52:35;;;;;;;24.50;13.77;;;1.90;99.90;;;;;;5085769;28;20028;-70
2023/01/25 06:55:05;;;;;;;24.30;13.77;;;1.90;99.90;;;;;;5093054;28;20035;-68
2023/01/25 06:57:31;;;;;;;27.73;14.52;;;1.90;99.90;;;;;;5093555;28;20316;-73
2023/01/25 06:59:57;;;;;;;24.48;14.10;;;1.90;99.90;;;;;;5094512;28;20052;-71
2023/01/25 07:02:22;;;;;;;24.30;13.65;;;1.80;99.90;;;;;;5094225;28;20043;-71
2023/01/25 07:04:48;;;;;;;27.88;15.32;;;1.80;99.90;;;;;;5092732;28;20039;-71
2023/01/25 07:07:13;;;;;;;25.85;14.35;;;1.80;99.90;;;;;;5089009;28;20469;-72
2023/01/25 07:09:39;;;;;;;26.83;13.57;;;1.80;99.90;;;;;;5093486;28;20415;-72
2023/01/25 07:12:05;;;;;;;23.75;13.65;;;1.80;99.90;;;;;;5095458;28;20024;-72
2023/01/25 07:14:31;;;;;;;26.38;14.05;;;1.90;99.90;;;;;;5093822;28;20115;-71
2023/01/25 07:16:57;;;;;;;22.48;13.25;;;1.80;99.90;;;;;;5093934;28;20051;-71
2023/01/25 07:19:23;;;;;;;25.15;14.55;;;1.80;99.90;;;;;;5088397;28;20422;-71
2023/01/25 07:21:49;;;;;;;23.63;13.73;;;1.80;99.90;;;;;;5093803;28;20873;-71
2023/01/25 07:24:16;;;;;;;23.40;13.70;;;1.80;99.90;;;;;;5093001;28;20137;-71
2023/01/25 07:26:43;;;;;;;24.58;13.45;;;1.90;99.90;;;;;;5086262;28;20039;-71
2023/01/25 07:29:13;;;;;;;24.77;12.93;;;1.90;99.90;;;;;;5093694;28;20035;-71
2023/01/25 07:31:38;;;;;;;;;;;1.90;99.90;;;;;;5093719;28;20443;-72
2023/01/25 07:34:06;;;;;;;21.13;11.50;;;1.90;99.90;;;;;;5093515;28;19915;-72
2023/01/25 07:36:31;;;;;;;22.10;12.48;;;1.90;99.90;;;;;;5092683;28;20035;-72
2023/01/25 07:38:57;;;;;;;23.08;13.43;;;2.00;99.90;;;;;;5092195;28;20058;-72
2023/01/25 07:41:24;;;;;;;23.73;13.32;;;2.00;99.90;;;;;;5092253;28;20035;-71
2023/01/25 07:43:50;;;;;;;19.10;11.57;;;1.90;99.90;;;;;;5091765;28;20024;-72
2023/01/25 07:46:16;;;;;;;24.52;13.07;;;2.00;99.90;;;;;;5093041;28;20036;-70
2023/01/25 07:48:46;;;;;;;18.63;11.90;;;2.10;99.90;;;;;;5091337;28;20035;-71
2023/01/25 07:51:21;;;;;;;20.63;12.60;;;2.20;99.90;;;;;;5093872;28;20484;-72
2023/01/25 07:53:49;;;;;;;22.67;13.63;;;2.10;99.90;;;;;;5083622;28;20028;-71
2023/01/25 07:56:14;;;;;;;23.80;13.38;;;2.00;99.90;;;;;;5096767;28;20366;-70
2023/01/25 07:58:40;;;;;;;22.13;12.80;;;2.10;99.90;;;;;;5092017;28;20032;-70
2023/01/25 08:01:13;;;;;;;21.13;12.73;;;2.10;99.90;;;;;;5090648;28;20032;-70
2023/01/25 08:03:39;;;;;;;26.58;14.40;;;2.10;99.90;;;;;;5092820;28;20035;-70
2023/01/25 08:06:06;;;;;;;25.10;13.52;;;2.10;99.90;;;;;;5098422;28;20028;-70
2023/01/25 08:08:33;;;;;;;24.15;14.05;;;2.10;99.90;;;;;;5106756;28;20040;-70
2023/01/25 08:11:21;;;;;;;25.75;13.93;;;2.00;99.90;;;;;;5092876;28;20036;-71
2023/01/25 08:13:48;;;;;;;20.65;12.77;;;2.10;99.90;;;;;;5103509;28;20417;-70
2023/01/25 08:16:16;;;;;;;20.60;13.13;;;2.10;99.90;;;;;;5103642;28;20073;-71
2023/01/25 08:18:42;;;;;;;25.65;14.23;;;2.10;99.90;;;;;;5094922;28;20024;-69
2023/01/25 08:21:08;;;;;;;25.17;13.90;;;2.10;99.90;;;;;;5098062;28;20035;-70
2023/01/25 08:23:34;;;;;;;24.30;13.45;;;2.20;99.90;;;;;;5091156;28;20028;-69
2023/01/25 08:26:07;;;;;;;22.08;12.68;;;2.30;99.90;;;;;;5096968;28;20040;-70
2023/01/25 08:28:34;;;;;;;21.83;12.63;;;2.30;99.90;;;;;;5093140;28;20104;-70
2023/01/25 08:31:17;;;;;;;20.75;12.05;;;2.30;99.90;;;;;;5091825;28;20030;-69
2023/01/25 08:33:45;;;;;;;21.95;11.90;;;2.40;99.90;;;;;;5093010;28;20028;-69
2023/01/25 08:36:12;;;;;;;22.35;11.80;;;2.50;99.90;;;;;;5090739;28;20398;-69
2023/01/25 08:38:38;;;;;;;23.05;13.25;;;2.40;99.90;;;;;;5092212;28;20028;-69
2023/01/25 08:41:22;;;;;;;23.25;13.55;;;2.30;99.90;;;;;;5096311;28;20107;-70
2023/01/25 08:43:48;;;;;;;20.45;13.00;;;2.30;99.90;;;;;;5100816;28;20473;-69
2023/01/25 08:46:15;;;;;;;21.33;13.02;;;2.30;99.90;;;;;;5100740;28;20047;-69
2023/01/25 08:48:41;;;;;;;22.63;13.00;;;2.40;99.90;;;;;;5099923;28;20046;-69
2023/01/25 08:51:16;;;;;;;21.35;11.98;;;2.40;99.90;;;;;;5098293;28;20023;-69
2023/01/25 08:53:41;;;;;;;22.00;13.50;;;2.50;99.90;;;;;;5083167;28;20099;-71
2023/01/25 08:56:10;;;;;;;21.27;12.85;;;2.50;99.90;;;;;;5093512;28;20062;-71
2023/01/25 08:58:37;;;;;;;20.48;12.40;;;2.50;99.90;;;;;;5096856;28;20726;-70
2023/01/25 09:01:06;;;;;;;22.05;13.27;;;2.40;99.90;;;;;;5094508;28;20059;-69
2023/01/25 09:03:38;;;;;;;21.63;13.07;;;2.30;99.90;;;;;;5098978;28;20096;-69
2023/01/25 09:06:04;;;;;;;24.95;13.82;;;2.30;99.90;;;;;;5096395;28;20115;-70
2023/01/25 09:08:29;;;;;;;27.85;13.07;;;2.30;99.90;;;;;;5090271;28;20174;-71
2023/01/25 09:11:07;;;;;;;20.63;12.55;;;2.30;99.90;;;;;;5091758;28;20107;-70
2023/01/25 09:13:32;;;;;;;20.25;11.65;;;2.30;99.90;;;;;;5092624;28;20111;-69
2023/01/25 09:16:03;;;;;;;21.88;12.60;;;2.50;99.90;;;;;;5090795;28;20119;-69
2023/01/25 09:18:30;;;;;;;20.00;12.20;;;2.40;99.90;;;;;;5087929;28;20050;-70
2023/01/25 09:20:55;;;;;;;23.25;12.88;;;2.30;99.90;;;;;;5092458;28;20028;-70
2023/01/25 09:23:22;;;;;;;21.20;12.73;;;2.30;99.90;;;;;;5093365;28;20106;-69
2023/01/25 09:25:55;;;;;;;20.10;11.95;;;2.30;99.90;;;;;;5089478;28;20036;-69
2023/01/25 09:28:20;;;;;;;27.45;14.48;;;2.40;99.90;;;;;;5091666;28;20036;-70
2023/01/25 09:30:56;;;;;;;21.63;12.18;;;2.50;99.90;;;;;;5092173;28;20028;-71
2023/01/25 09:33:32;;;;;;;20.75;12.57;;;2.50;99.90;;;;;;5092052;28;20020;-71
2023/01/25 09:35:58;;;;;;;18.58;11.05;;;2.40;99.90;;;;;;5091057;28;20043;-70
2023/01/25 09:38:24;;;;;;;21.92;13.00;;;2.40;99.90;;;;;;5101519;28;20036;-70
2023/01/25 09:41:08;;;;;;;22.42;12.93;;;2.40;99.90;;;;;;5086898;28;20665;-70
2023/01/25 09:43:44;;;;;;;21.20;12.57;;;2.30;99.90;;;;;;5094781;28;20469;-70
2023/01/25 09:46:28;;;;;;;19.85;12.77;;;2.30;99.90;;;;;;5100492;28;20028;-70
2023/01/25 09:49:18;;;;;;;22.85;14.05;;;2.30;99.90;;;;;;5087082;28;20134;-70
2023/01/25 09:52:03;;;;;;;;;;;2.30;99.90;;;;;;5090990;28;20051;-71
2023/01/25 09:54:32;;;;;;;19.77;11.85;;;2.40;99.90;;;;;;5092077;28;20438;-71
2023/01/25 09:56:58;;;;;;;22.85;13.45;;;2.40;99.90;;;;;;5093476;28;20044;-70
2023/01/25 09:59:29;;;;;;;24.80;13.48;;;2.40;99.90;;;;;;5085079;28;20036;-71
2023/01/25 10:02:08;;;;;;;23.75;13.63;;;2.40;99.90;;;;;;5098098;28;20062;-71
2023/01/25 10:04:43;;;;;;;22.65;13.32;;;2.40;99.90;;;;;;5088777;28;20028;-71
2023/01/25 10:07:39;;;;;;;22.52;13.52;;;2.40;99.90;;;;;;5102645;28;20023;-70
2023/01/25 10:10:12;;;;;;;22.02;13.63;;;2.40;99.90;;;;;;5091352;28;20043;-70
2023/01/25 10:12:38;;;;;;;24.67;13.52;;;2.50;99.90;;;;;;5091544;28;20146;-70
2023/01/25 10:15:19;;;;;;;24.77;14.35;;;2.60;99.90;;;;;;5095537;28;20127;-71
2023/01/25 10:17:58;;;;;;;21.92;12.52;;;2.70;99.90;;;;;;5100795;28;20032;-70
2023/01/25 10:20:42;;;;;;;20.65;12.75;;;2.70;99.90;;;;;;5091634;28;20469;-71
2023/01/25 10:23:27;;;;;;;21.15;12.82;;;2.70;99.90;;;;;;5098749;28;20483;-71
2023/01/25 10:26:03;;;;;;;25.65;14.10;;;2.70;99.90;;;;;;5097646;28;20035;-71
2023/01/25 10:29:01;;;;;;;21.20;12.20;;;2.70;99.90;;;;;;5095361;28;20062;-71
2023/01/25 10:31:43;;;;;;;23.65;13.25;;;2.70;99.90;;;;;;5104833;28;20469;-70
2023/01/25 10:34:17;;;;;;;22.58;13.50;;;2.70;99.90;;;;;;5096135;28;20040;-71
2023/01/25 10:36:48;;;;;;;25.17;13.15;;;2.70;99.90;;;;;;5093869;28;20027;-70
2023/01/25 10:39:14;;;;;;;24.15;14.73;;;2.70;99.90;;;;;;5100924;28;20064;-70
2023/01/25 10:42:20;;;;;;;21.42;13.57;;;2.70;99.90;;;;;;5098313;28;20366;-71
2023/01/25 10:44:45;;;;;;;22.83;13.35;;;2.70;99.90;;;;;;5091368;28;20048;-70
2023/01/25 10:47:27;;;;;;;22.67;14.07;;;2.80;99.90;;;;;;5095973;28;20048;-70
2023/01/25 10:49:55;;;;;;;22.50;13.70;;;2.70;99.90;;;;;;5089778;28;20028;-70
2023/01/25 10:52:23;;;;;;;23.88;13.23;;;2.70;99.90;;;;;;5094291;28;20107;-70
2023/01/25 10:55:13;;;;;;;23.77;13.65;;;2.80;99.90;;;;;;5091268;28;20634;-70
2023/01/25 10:57:50;;;;;;;24.05;14.15;;;2.70;99.90;;;;;;5092913;28;20032;-70
2023/01/25 11:00:19;;;;;;;22.50;13.00;;;2.80;99.90;;;;;;5094680;28;20374;-70
2023/01/25 11:02:46;;;;;;;21.92;12.73;;;2.80;99.90;;;;;;5093093;28;20031;-70
2023/01/25 11:05:24;;;;;;;22.13;14.93;;;2.80;99.90;;;;;;5075432;28;20389;-70
2023/01/25 11:07:50;;;;;;;23.15;13.45;;;2.70;99.90;;;;;;5098629;28;20035;-70
2023/01/25 11:10:32;;;;;;;29.58;14.65;;;2.70;99.90;;;;;;5099464;28;20032;-71
2023/01/25 11:13:18;;;;;;;28.42;14.60;;;2.70;99.90;;;;;;5094732;28;20028;-70
2023/01/25 11:16:10;;;;;;;24.25;15.60;;;2.80;99.90;;;;;;5094799;28;20028;-70
2023/01/25 11:18:35;;;;;;;25.67;15.45;;;2.80;99.90;;;;;;5093026;28;20067;-70
2023/01/25 11:21:05;;;;;;;26.42;15.65;;;2.70;99.90;;;;;;5095049;28;20060;-70
2023/01/25 11:23:32;;;;;;;25.25;14.43;;;2.70;99.90;;;;;;5089759;28;20024;-70
2023/01/25 11:26:18;;;;;;;28.90;15.35;;;2.70;99.90;;;;;;5096678;28;20055;-70
2023/01/25 11:28:49;;;;;;;25.92;14.65;;;2.70;99.90;;;;;;5094249;28;20024;-70
2023/01/25 11:31:23;;;;;;;28.15;15.82;;;2.60;99.90;;;;;;5094872;28;20031;-69
2023/01/25 11:33:49;;;;;;;27.85;15.98;;;2.50;99.90;;;;;;5089131;28;20028;-69
2023/01/25 11:36:37;;;;;;;29.33;16.52;;;2.50;99.90;;;;;;5105351;28;20042;-69
2023/01/25 11:39:42;;;;;;;29.75;17.52;;;2.60;99.90;;;;;;5101811;28;20438;-69
2023/01/25 11:42:16;;;;;;;30.35;17.27;;;2.60;99.90;;;;;;5097703;28;20036;-69
2023/01/25 11:44:51;;;;;;;31.02;17.33;;;2.60;99.90;;;;;;5093530;28;20027;-69
2023/01/25 11:47:22;;;;;;;28.60;16.40;;;2.60;99.90;;;;;;5099884;28;20104;-70
2023/01/25 11:50:37;;;;;;;30.83;18.55;;;2.60;99.90;;;;;;5098712;28;20591;-69
2023/01/25 11:53:52;;;;;;;30.98;17.80;;;2.60;99.90;;;;;;5025641;28;20462;-68
2023/01/25 11:56:44;;;;;;;26.05;16.85;;;2.70;99.90;;;;;;5027104;28;20568;-68
2023/01/25 11:59:29;;;;;;;28.58;16.15;;;2.60;99.90;;;;;;5097015;28;20024;-68
2023/01/25 12:02:08;;;;;;;28.77;16.48;;;2.60;99.90;;;;;;5092798;28;20024;-68
2023/01/25 12:05:01;;;;;;;27.27;17.38;;;2.60;99.90;;;;;;5091675;28;20500;-68
2023/01/25 12:07:42;;;;;;;30.83;18.67;;;2.50;99.90;;;;;;5090825;28;20027;-69
2023/01/25 12:10:26;;;;;;;31.20;17.42;;;2.40;99.90;;;;;;5104143;28;20024;-69
2023/01/25 12:12:55;;;;;;;26.33;16.27;;;2.50;99.90;;;;;;5094496;28;20100;-70
2023/01/25 12:15:23;;;;;;;28.80;16.73;;;2.40;99.90;;;;;;5088461;28;20043;-69
2023/01/25 12:17:55;;;;;;;27.60;16.58;;;2.40;99.90;;;;;;5092050;28;20115;-70
2023/01/25 12:20:30;;;;;;;28.05;17.50;;;2.30;99.90;;;;;;5100369;28;20039;-69
2023/01/25 12:22:58;;;;;;;29.50;17.65;;;2.30;99.90;;;;;;5098568;28;20031;-70
2023/01/25 12:25:45;;;;;;;27.35;16.15;;;2.20;99.90;;;;;;5091329;28;20032;-69
2023/01/25 12:28:26;;;;;;;27.50;16.45;;;2.20;99.90;;;;;;5072349;28;20091;-70
2023/01/25 12:31:09;;;;;;;28.92;16.77;;;2.30;99.90;;;;;;5067240;28;20032;-69
2023/01/25 12:33:51;;;;;;;31.33;18.80;;;2.40;99.90;;;;;;5067797;28;20041;-69
2023/01/25 12:36:23;;;;;;;30.63;17.77;;;2.30;99.90;;;;;;5071271;28;20039;-69
2023/01/25 12:38:56;;;;;;;32.75;17.80;;;2.40;99.90;;;;;;5049307;28;20800;-69
2023/01/25 12:41:34;;;;;;;31.98;17.77;;;2.40;99.90;;;;;;5066067;28;20032;-70
2023/01/25 12:44:15;;;;;;;33.42;17.90;;;2.40;99.90;;;;;;5069280;28;20369;-69
2023/01/25 12:46:46;;;;;;;31.48;19.10;;;2.40;99.90;;;;;;5065245;28;20470;-70
2023/01/25 12:49:33;;;;;;;31.60;17.77;;;2.30;99.90;;;;;;5065956;28;20059;-69
2023/01/25 12:52:03;;;;;;;34.55;18.80;;;2.30;99.90;;;;;;5068257;28;20025;-69
2023/01/25 12:54:35;;;;;;;38.95;19.58;;;2.30;99.90;;;;;;5070930;28;20487;-69
2023/01/25 12:57:15;;;;;;;29.25;18.60;;;2.30;99.90;;;;;;5058437;28;20025;-69
2023/01/25 12:59:54;;;;;;;31.13;18.10;;;2.30;99.90;;;;;;5062468;28;20028;-69